• Join FlightAware (Why Join?)
  • Login
  • US Flag 
03:00PM EDT


 

Airport Tracker/Info


-or-


 

Live Flight TrackerFlight Track Log ✈ USC105 ✈ 25-Jun-2013 ✈ KLCK - KBKL

Flight Track Log - Related Links

Times and Time Zones

All times are in EDT time to prevent confusion due to time zone crossing. See the USC105 flight status page for this flight to view local times or setup timezone preferences in your user account.

Time Position Orientation Groundspeed Altitude Reporting Facility
EDT Latitude Longitude Course Direction KTS MPH feet Rate Location/Type
09:51PM 39.8081 -82.9397 225° Southwest 121 139 800  Level Indianapolis Center
09:52PM 39.7964 -82.9547 225° Southwest 112 129 1,500 1,020 Climbing Indianapolis Center
09:53PM 39.7769 -82.9781 223° Southwest 113 130 2,300 780 Climbing Indianapolis Center
09:54PM 39.7494 -82.9428 135° Southeast 134 154 3,100 840 Climbing Indianapolis Center
09:55PM 39.7714 -82.8947 59° Northeast 165 190 4,000 840 Climbing Indianapolis Center
09:56PM 39.8014 -82.8514 48° Northeast 160 184 4,900 840 Climbing Indianapolis Center
09:57PM 39.8347 -82.8128 42° Northeast 159 183 5,800 900 Climbing Indianapolis Center
09:58PM 39.8694 -82.7719 42° Northeast 165 190 6,800 540 Climbing Indianapolis Center
09:59PM 39.9083 -82.7297 40° Northeast 180 207 7,000 60 Climbing Indianapolis Center
10:00PM 39.9503 -82.6739 46° Northeast 210 242 7,000  Level Indianapolis Center
10:01PM 39.9981 -82.6331 33° Northeast 207 238 7,000  Level Indianapolis Center
10:02PM 40.0525 -82.5761 39° Northeast 212 244 7,000  Level Indianapolis Center
10:03PM 40.0992 -82.5269 39° Northeast 213 245 7,000  Level Indianapolis Center
10:04PM 40.1425 -82.4722 44° Northeast 215 247 7,000  Level Indianapolis Center
10:05PM 40.1892 -82.4233 39° Northeast 213 245 7,000  Level Indianapolis Center
10:06PM 40.2397 -82.3833 31° Northeast 212 244 7,100  Climbing Indianapolis Center
10:07PM 40.2922 -82.3397 32° Northeast 213 245 7,000 -60 Descending Indianapolis Center
10:08PM 40.3447 -82.3022 29° Northeast 210 242 7,000  Level Indianapolis Center
10:09PM 40.4003 -82.2792 18° North 206 237 7,000  Level Indianapolis Center
10:10PM 40.4556 -82.2528 20° North 209 241 7,000  Level Indianapolis Center
10:11PM 40.5106 -82.2250 21° North 209 241 7,000 -420 Level Indianapolis Center
10:12PM 40.5675 -82.1925 23° Northeast 219 252 6,200 -780 Descending Indianapolis Center
10:13PM 40.6278 -82.1617 21° North 228 262 5,500 -660 Descending Indianapolis Center
10:14PM 40.6886 -82.1308 21° North 231 266 4,900 -300 Descending Indianapolis Center
10:15PM 40.7431 -82.0997 23° Northeast 216 249 4,900  Level Indianapolis Center
10:16PM 40.7975 -82.0714 22° Northeast 210 242 4,900  Level Indianapolis Center
10:17PM 40.8597 -82.0372 23° Northeast 206 237 5,000  Climbing Indianapolis Center
10:18PM 40.9136 -82.0092 21° North 206 237 4,900 -60 Descending Indianapolis Center
10:19PM 40.9689 -81.9775 23° Northeast 212 244 4,900  Level Indianapolis Center
10:20PM 41.0236 -81.9478 22° Northeast 211 243 5,000 -120 Climbing Indianapolis Center
10:21PM 41.0636 -81.8867 49° Northeast 230 265 4,700 -420 Descending Indianapolis Center
10:22PM 41.1047 -81.8217 50° Northeast 232 267 4,200 -540 Descending Indianapolis Center
10:23PM 41.1369 -81.7383 63° Northeast 216 249 3,600 -540 Descending Cleveland Center